バマコ の空港の天気 - METARとTAF

バマコ・セヌー国際空港 ( GABS / BKO ) - マリ バマコ
飛行場実況気象(Metar)
観測時間02/17 14:30 GMT (02/17 14:30 UTC)
風向・風速西南西 4m/s
視程8000m
天気現象
なし
気温38℃
湿度8%
気圧1012hPa
METARGABS 171430Z 24007KT 170V280 8000 NSC 38/M02 Q1012 NOSIG
過去の天気等 Google飛行場航空写真 Wunderground天気予報

過去48時間のMETAR

飛行場予報(TAF)
発表時間: 2/17 11:10 GMT (2/17 11:10 UTC)
予報対象時間: 17日12時 GMT ~ 18日18時 GMT
風向・風速南東 5m/s
視程8000m
なし
18日4時 GMT ~ 18日6時 GMT に徐々に
風向・風速南西 3m/s
TAF COR GABS 171110Z 1712/1818 14010KT 8000 NSC
BECMG 1804/1806 22006KT